Laplata, Maryland
Current Conditions -  °F | °C
As of 8:56 AM on Monday 22 Dec 2014 (Local Time) from KNYG Reporting Station
Overcast Overcast  
Wind Chill: 29°   Ceiling: 4300
Heat Index: 36°   Visibility: 10mi
Dew Point: 28°   Wind: 9mph
Humidity: 73%   Direction: 50°NE
Pressure: 30.31"   Gusts: NA
Location:  38.5166°N, 76.9981°W
Report Text: KNYG 221356Z 05008KT 10SM OVC043 02/M02 A3031 RMK AO2 RAE53 SLP265 P0000 T00221022 $
Loading
Personal Weather Stations






























Interactive Weather Map New forecast layout! Learn more

10-Day Weather Forecast

Advertisements
Track Severe Weather on mobile